Time;durP1;ratioP1;P1;durP2;ratioP2;P2;SDS_P1;SDS_P2;PMS_P1;PMS_P2;Temp;Humidity;BMP_temperature;BMP_pressure;BME280_temperature;BME280_humidity;BME280_pressure;Samples;Min_cycle;Max_cycle;Signal;HPM_P1;HPM_P2
2024/04/06 00:02:49;;;;;;;2.40;1.10;;;;;;;;;;10287474;28;20038;-78
2024/04/06 00:07:50;;;;;;;;;;;;;;;;;;10289094;28;20525;-78
2024/04/06 00:12:52;;;;;;;1.45;0.47;;;;;;;;;;10301666;28;19937;-79
2024/04/06 00:17:55;;;;;;;5.78;1.70;;;;;;;;;;10283035;28;20089;-78
2024/04/06 00:22:58;;;;;;;2.83;1.50;;;;;;;;;;10308281;28;20109;-80
2024/04/06 00:28:01;;;;;;;3.17;1.40;;;;;;;;;;10290183;28;20050;-81
2024/04/06 00:33:03;;;;;;;;;;;;;;;;;;10307935;28;20383;-81
2024/04/06 00:38:09;;;;;;;3.35;1.50;;;;;;;;;;10270242;28;20109;-78
2024/04/06 00:43:12;;;;;;;2.90;1.33;;;;;;;;;;10276429;28;20049;-78
2024/04/06 00:48:13;;;;;;;2.22;1.05;;;;;;;;;;10293548;28;20146;-77
2024/04/06 00:53:17;;;;;;;5.15;1.50;;;;;;;;;;10281890;28;20482;-78
2024/04/06 00:58:19;;;;;;;3.40;1.20;;;;;;;;;;10282320;28;20129;-78
2024/04/06 01:03:21;;;;;;;3.70;1.70;;;;;;;;;;10301086;28;20038;-80
2024/04/06 01:08:25;;;;;;;1.13;1.00;;;;;;;;;;10308931;28;20042;-77
2024/04/06 01:13:27;;;;;;;;;;;;;;;;;;10299053;28;20038;-80
2024/04/06 01:18:28;;;;;;;2.72;1.38;;;;;;;;;;10298223;28;20255;-79
2024/04/06 01:23:32;;;;;;;4.47;1.45;;;;;;;;;;10292821;28;20043;-80
2024/04/06 01:28:35;;;;;;;2.80;1.23;;;;;;;;;;10292433;28;20070;-78
2024/04/06 01:33:37;;;;;;;2.63;1.30;;;;;;;;;;10294188;28;20463;-77
2024/04/06 01:38:38;;;;;;;1.92;0.98;;;;;;;;;;10300840;28;20046;-78
2024/04/06 01:43:42;;;;;;;2.97;1.25;;;;;;;;;;10293836;28;20046;-78
2024/04/06 01:48:43;;;;;;;3.42;1.17;;;;;;;;;;10295316;28;20038;-78
2024/04/06 01:53:46;;;;;;;4.10;1.10;;;;;;;;;;10275288;28;20039;-79
2024/04/06 01:58:50;;;;;;;6.50;1.55;;;;;;;;;;10290320;28;20121;-79
2024/04/06 02:03:51;;;;;;;1.90;0.80;;;;;;;;;;10290720;28;20503;-79
2024/04/06 02:08:53;;;;;;;2.10;0.90;;;;;;;;;;10290635;28;20046;-79
2024/04/06 02:13:57;;;;;;;2.67;1.25;;;;;;;;;;10281116;28;20033;-79
2024/04/06 02:18:58;;;;;;;1.67;1.23;;;;;;;;;;10289409;28;20646;-79
2024/04/06 02:24:01;;;;;;;1.70;1.10;;;;;;;;;;10282086;28;20050;-79
2024/04/06 02:29:04;;;;;;;2.42;1.00;;;;;;;;;;10298572;28;20449;-79
2024/04/06 02:34:06;;;;;;;1.90;0.90;;;;;;;;;;10295845;28;20149;-78
2024/04/06 02:39:09;;;;;;;1.13;0.95;;;;;;;;;;10287300;28;20125;-80
2024/04/06 02:44:11;;;;;;;;;;;;;;;;;;10283447;28;20043;-78
2024/04/06 02:49:15;;;;;;;2.83;0.88;;;;;;;;;;10265373;28;19930;-79
2024/04/06 02:54:17;;;;;;;1.85;0.90;;;;;;;;;;10291269;28;20038;-80
2024/04/06 02:59:18;;;;;;;1.08;0.90;;;;;;;;;;10293881;28;21543;-78
2024/04/06 03:04:22;;;;;;;2.58;1.00;;;;;;;;;;10292318;28;20074;-81
2024/04/06 03:09:23;;;;;;;3.90;1.50;;;;;;;;;;10301861;28;20049;-81
2024/04/06 03:14:25;;;;;;;2.13;1.20;;;;;;;;;;10289994;28;20043;-81
2024/04/06 03:19:29;;;;;;;3.22;1.20;;;;;;;;;;10290732;28;20046;-79
2024/04/06 03:24:38;;;;;;;;;;;;;;;;;;10302084;28;20175;-78
2024/04/06 03:29:42;;;;;;;4.93;1.35;;;;;;;;;;10392392;23;20067;-79
2024/04/06 03:34:45;;;;;;;2.60;1.40;;;;;;;;;;10362560;28;20116;-78
2024/04/06 03:39:47;;;;;;;3.47;1.80;;;;;;;;;;10376944;28;20050;-78
2024/04/06 03:44:50;;;;;;;3.30;1.30;;;;;;;;;;10373471;28;20092;-78
2024/04/06 03:49:53;;;;;;;2.65;1.40;;;;;;;;;;10377367;28;20148;-79
2024/04/06 03:54:55;;;;;;;2.35;1.20;;;;;;;;;;10374912;28;20099;-79
2024/04/06 03:59:59;;;;;;;3.05;1.50;;;;;;;;;;10371003;28;20128;-79
2024/04/06 04:05:02;;;;;;;3.33;1.27;;;;;;;;;;10373556;28;20050;-78
2024/04/06 04:10:04;;;;;;;4.05;1.33;;;;;;;;;;10355459;28;20152;-78
2024/04/06 04:15:06;;;;;;;2.35;1.50;;;;;;;;;;10371817;28;20580;-78
2024/04/06 04:20:10;;;;;;;3.40;1.63;;;;;;;;;;10373981;28;20075;-78
2024/04/06 04:25:12;;;;;;;;;;;;;;;;;;10355922;28;20148;-78
2024/04/06 04:30:15;;;;;;;2.08;1.40;;;;;;;;;;10371388;28;19925;-79
2024/04/06 04:35:19;;;;;;;3.45;1.45;;;;;;;;;;10374042;28;20064;-78
2024/04/06 04:40:22;;;;;;;2.08;1.30;;;;;;;;;;10375141;28;20050;-77
2024/04/06 04:45:24;;;;;;;2.00;1.20;;;;;;;;;;10373211;28;20442;-81
2024/04/06 04:50:27;;;;;;;3.53;1.38;;;;;;;;;;10375041;28;20045;-79
2024/04/06 04:55:29;;;;;;;1.67;1.00;;;;;;;;;;10373044;28;20037;-79
2024/04/06 05:00:31;;;;;;;2.00;1.40;;;;;;;;;;10374889;28;20312;-77
2024/04/06 05:05:34;;;;;;;2.67;1.40;;;;;;;;;;10373018;28;20129;-78
2024/04/06 05:10:36;;;;;;;2.67;1.00;;;;;;;;;;10374364;28;20426;-77
2024/04/06 05:15:38;;;;;;;1.73;1.10;;;;;;;;;;10352042;28;20071;-78
2024/04/06 05:20:41;;;;;;;2.15;1.30;;;;;;;;;;10373799;28;20041;-78
2024/04/06 05:25:43;;;;;;;2.15;1.13;;;;;;;;;;10373102;28;20041;-79
2024/04/06 05:30:45;;;;;;;2.08;1.08;;;;;;;;;;10373753;28;20164;-78
2024/04/06 05:35:49;;;;;;;1.30;1.15;;;;;;;;;;10370551;28;20053;-78
2024/04/06 05:40:51;;;;;;;;;;;;;;;;;;10372478;28;20402;-80
2024/04/06 05:45:59;;;;;;;5.30;1.52;;;;;;;;;;10371831;28;20331;-80
2024/04/06 05:51:05;;;;;;;2.08;1.13;;;;;;;;;;10370473;28;20068;-78
2024/04/06 05:56:08;;;;;;;2.13;1.00;;;;;;;;;;10370153;28;20064;-79
2024/04/06 06:01:10;;;;;;;3.65;1.15;;;;;;;;;;10364787;28;20180;-78
2024/04/06 06:06:15;;;;;;;2.08;1.23;;;;;;;;;;10353649;28;20148;-78
2024/04/06 06:11:16;;;;;;;1.98;1.08;;;;;;;;;;10367409;28;20044;-78
2024/04/06 06:16:18;;;;;;;1.63;0.88;;;;;;;;;;10367506;28;20512;-79
2024/04/06 06:21:21;;;;;;;1.95;1.02;;;;;;;;;;10371162;28;20046;-80
2024/04/06 06:26:24;;;;;;;5.53;1.15;;;;;;;;;;10354994;28;20564;-79
2024/04/06 06:31:26;;;;;;;2.20;1.00;;;;;;;;;;10368229;28;20528;-80
2024/04/06 06:36:29;;;;;;;1.60;0.80;;;;;;;;;;10378525;28;20096;-77
2024/04/06 06:41:31;;;;;;;2.63;1.05;;;;;;;;;;10372568;28;20045;-78
2024/04/06 06:46:33;;;;;;;2.78;1.10;;;;;;;;;;10398249;28;20043;-79
2024/04/06 06:51:36;;;;;;;1.65;1.02;;;;;;;;;;10375101;28;20525;-78
2024/04/06 06:56:38;;;;;;;1.17;1.08;;;;;;;;;;10375871;28;20038;-80
2024/04/06 07:01:40;;;;;;;1.40;1.05;;;;;;;;;;10373759;28;20410;-79
2024/04/06 07:06:43;;;;;;;4.53;1.30;;;;;;;;;;10370848;28;20121;-77
2024/04/06 07:11:45;;;;;;;2.08;1.10;;;;;;;;;;10373409;28;20078;-77
2024/04/06 07:16:46;;;;;;;1.17;1.03;;;;;;;;;;10372877;28;20478;-77
2024/04/06 07:21:50;;;;;;;2.28;1.38;;;;;;;;;;10369776;28;20048;-75
2024/04/06 07:26:53;;;;;;;3.40;1.63;;;;;;;;;;10370293;28;20049;-77
2024/04/06 07:31:55;;;;;;;2.42;1.25;;;;;;;;;;10369852;28;20057;-77
2024/04/06 07:36:58;;;;;;;1.50;1.25;;;;;;;;;;10389677;28;20045;-77
2024/04/06 07:42:00;;;;;;;2.60;1.30;;;;;;;;;;10363982;28;20060;-78
2024/04/06 07:47:02;;;;;;;4.07;2.10;;;;;;;;;;10362479;28;20176;-78
2024/04/06 07:52:06;;;;;;;2.17;1.58;;;;;;;;;;10371980;28;20049;-78
2024/04/06 07:57:08;;;;;;;4.25;2.53;;;;;;;;;;10369357;28;20489;-77
2024/04/06 08:02:10;;;;;;;3.55;1.50;;;;;;;;;;10370405;28;20065;-81
2024/04/06 08:07:14;;;;;;;2.85;1.20;;;;;;;;;;10345922;28;20041;-76
2024/04/06 08:12:16;;;;;;;4.45;1.38;;;;;;;;;;10355788;28;20524;-78
2024/04/06 08:17:18;;;;;;;2.17;1.63;;;;;;;;;;10375714;28;20057;-77
2024/04/06 08:22:23;;;;;;;2.33;1.67;;;;;;;;;;10371168;28;20114;-78
2024/04/06 08:27:24;;;;;;;1.75;1.23;;;;;;;;;;10370524;28;20053;-79
2024/04/06 08:32:26;;;;;;;2.78;1.67;;;;;;;;;;10355267;28;20056;-77
2024/04/06 08:37:30;;;;;;;2.25;1.50;;;;;;;;;;10360242;28;20045;-79
2024/04/06 08:42:32;;;;;;;1.95;1.50;;;;;;;;;;10375091;28;20533;-79
2024/04/06 08:47:35;;;;;;;1.92;1.50;;;;;;;;;;10374023;28;20362;-77
2024/04/06 08:52:39;;;;;;;2.78;1.75;;;;;;;;;;10354869;28;20096;-78
2024/04/06 08:57:42;;;;;;;2.22;1.73;;;;;;;;;;10371834;28;20108;-75
2024/04/06 09:02:43;;;;;;;3.88;1.90;;;;;;;;;;10371754;28;20038;-77
2024/04/06 09:07:48;;;;;;;2.83;1.60;;;;;;;;;;10353540;28;20042;-77
2024/04/06 09:12:50;;;;;;;3.25;1.73;;;;;;;;;;10367001;28;20466;-78
2024/04/06 09:17:52;;;;;;;3.05;1.80;;;;;;;;;;10353606;28;20044;-78
2024/04/06 09:22:56;;;;;;;2.78;1.88;;;;;;;;;;10364716;28;20064;-76
2024/04/06 09:27:58;;;;;;;4.35;2.15;;;;;;;;;;10350784;28;20096;-77
2024/04/06 09:33:03;;;;;;;2.90;2.00;;;;;;;;;;10360270;28;20033;-78
2024/04/06 09:38:09;;;;;;;2.10;1.90;;;;;;;;;;10363134;28;20049;-78
2024/04/06 09:43:12;;;;;;;2.88;1.90;;;;;;;;;;10369675;28;20052;-79
2024/04/06 09:48:14;;;;;;;2.65;1.80;;;;;;;;;;10372038;28;20087;-80
2024/04/06 09:53:18;;;;;;;3.90;1.70;;;;;;;;;;10362073;28;20033;-77
2024/04/06 09:58:27;;;;;;;3.47;2.10;;;;;;;;;;10346789;28;20107;-77
2024/04/06 10:03:34;;;;;;;2.25;2.05;;;;;;;;;;10360762;28;20119;-79
2024/04/06 10:08:49;;;;;;;4.03;2.90;;;;;;;;;;10365155;28;20053;-78
2024/04/06 10:13:57;;;;;;;3.33;2.17;;;;;;;;;;10379807;28;20037;-79
2024/04/06 10:19:09;;;;;;;3.33;2.10;;;;;;;;;;10353990;28;20971;-77
2024/04/06 10:24:13;;;;;;;3.00;2.20;;;;;;;;;;10360787;28;20651;-79
2024/04/06 10:29:16;;;;;;;2.58;2.22;;;;;;;;;;10368420;28;20042;-79
2024/04/06 10:34:19;;;;;;;3.33;2.17;;;;;;;;;;10370001;28;20041;-80
2024/04/06 10:39:22;;;;;;;2.38;1.90;;;;;;;;;;10347258;28;20049;-79
2024/04/06 10:44:24;;;;;;;4.53;2.25;;;;;;;;;;10370842;28;20111;-80
2024/04/06 10:49:27;;;;;;;2.30;2.10;;;;;;;;;;10367855;28;20454;-79
2024/04/06 10:54:32;;;;;;;2.88;2.17;;;;;;;;;;10357667;28;20030;-78
2024/04/06 10:59:36;;;;;;;2.75;1.98;;;;;;;;;;10352168;28;20406;-78
2024/04/06 11:04:40;;;;;;;2.92;2.17;;;;;;;;;;10362671;28;20046;-79
2024/04/06 11:09:45;;;;;;;2.42;2.28;;;;;;;;;;10366360;28;20200;-80
2024/04/06 11:14:49;;;;;;;2.05;1.90;;;;;;;;;;10347972;28;20038;-80
2024/04/06 11:19:53;;;;;;;3.13;2.03;;;;;;;;;;10370441;28;20388;-79
2024/04/06 11:24:58;;;;;;;2.25;1.88;;;;;;;;;;10373291;28;20057;-79
2024/04/06 11:30:00;;;;;;;1.75;1.60;;;;;;;;;;10373217;28;20053;-79
2024/04/06 11:35:02;;;;;;;1.80;1.70;;;;;;;;;;10358586;28;20104;-79
2024/04/06 11:40:08;;;;;;;1.60;1.50;;;;;;;;;;10372016;28;20382;-78
2024/04/06 11:45:10;;;;;;;2.47;1.67;;;;;;;;;;10369836;28;20739;-79
2024/04/06 11:50:12;;;;;;;2.75;1.48;;;;;;;;;;10356626;28;20502;-79
2024/04/06 11:55:15;;;;;;;1.40;1.30;;;;;;;;;;10356049;28;20402;-78
2024/04/06 12:00:19;;;;;;;1.60;1.50;;;;;;;;;;10366160;28;20225;-79
2024/04/06 12:05:22;;;;;;;2.20;1.50;;;;;;;;;;10355029;28;20037;-79
2024/04/06 12:10:28;;;;;;;1.80;1.70;;;;;;;;;;10369217;28;20133;-79
2024/04/06 12:15:30;;;;;;;2.35;1.70;;;;;;;;;;10363055;28;20100;-79
2024/04/06 12:20:31;;;;;;;3.95;1.70;;;;;;;;;;10372257;28;20481;-78
2024/04/06 12:25:35;;;;;;;3.53;1.60;;;;;;;;;;10369988;28;20148;-78
2024/04/06 12:30:36;;;;;;;2.13;1.70;;;;;;;;;;10368967;28;20597;-77
2024/04/06 12:35:40;;;;;;;1.55;1.50;;;;;;;;;;10370000;28;20465;-79
2024/04/06 12:40:43;;;;;;;1.65;1.35;;;;;;;;;;10368981;28;20049;-78
2024/04/06 12:45:45;;;;;;;2.15;1.65;;;;;;;;;;10370590;28;20532;-79
2024/04/06 12:50:47;;;;;;;1.63;1.52;;;;;;;;;;10366091;28;20052;-79
2024/04/06 12:55:50;;;;;;;1.30;1.20;;;;;;;;;;10345063;28;20058;-78
2024/04/06 13:00:53;;;;;;;0.95;0.95;;;;;;;;;;10368765;28;20088;-78
2024/04/06 13:06:02;;;;;;;2.17;1.15;;;;;;;;;;10370048;28;20041;-79
2024/04/06 13:11:06;;;;;;;1.42;1.33;;;;;;;;;;10365462;28;20061;-79
2024/04/06 13:16:08;;;;;;;1.40;1.20;;;;;;;;;;10367192;28;20410;-78
2024/04/06 13:21:10;;;;;;;1.52;1.30;;;;;;;;;;10367767;28;20312;-77
2024/04/06 13:26:15;;;;;;;1.33;1.20;;;;;;;;;;10367629;28;20053;-78
2024/04/06 13:31:17;;;;;;;1.20;1.10;;;;;;;;;;10365668;28;20037;-78
2024/04/06 13:36:18;;;;;;;1.15;1.00;;;;;;;;;;10367060;28;20502;-78
2024/04/06 13:41:21;;;;;;;1.88;1.08;;;;;;;;;;10364124;28;20517;-78
2024/04/06 13:46:23;;;;;;;1.60;1.13;;;;;;;;;;10364308;28;20045;-78
2024/04/06 13:51:25;;;;;;;1.17;0.90;;;;;;;;;;10352622;28;20257;-77
2024/04/06 13:56:29;;;;;;;2.25;1.20;;;;;;;;;;10366038;28;20465;-78
2024/04/06 14:01:31;;;;;;;1.25;1.00;;;;;;;;;;10360455;28;20057;-78
2024/04/06 14:06:33;;;;;;;3.72;1.10;;;;;;;;;;10368495;28;20639;-78
2024/04/06 14:11:36;;;;;;;1.80;1.10;;;;;;;;;;10364019;28;20052;-78
2024/04/06 14:16:39;;;;;;;0.90;0.90;;;;;;;;;;10367922;28;20451;-77
2024/04/06 14:21:41;;;;;;;1.25;0.85;;;;;;;;;;10365975;28;20498;-77
2024/04/06 14:26:46;;;;;;;1.20;0.80;;;;;;;;;;10385330;28;20467;-77
2024/04/06 14:31:48;;;;;;;3.05;1.60;;;;;;;;;;10369429;28;20076;-77
2024/04/06 14:36:50;;;;;;;0.70;0.70;;;;;;;;;;10364855;28;20110;-77
2024/04/06 14:41:54;;;;;;;1.58;0.90;;;;;;;;;;10365857;28;20042;-76
2024/04/06 14:46:56;;;;;;;1.27;1.02;;;;;;;;;;10345148;28;20042;-77
2024/04/06 14:51:58;;;;;;;2.38;0.82;;;;;;;;;;10375055;28;20046;-77
2024/04/06 14:57:01;;;;;;;1.95;0.90;;;;;;;;;;10372381;28;20045;-77
2024/04/06 15:02:03;;;;;;;1.65;0.90;;;;;;;;;;10377122;28;20041;-77
2024/04/06 15:07:04;;;;;;;;;;;;;;;;;;10375413;28;20072;-77
2024/04/06 15:12:09;;;;;;;2.58;0.85;;;;;;;;;;10367964;28;19925;-78
2024/04/06 15:17:10;;;;;;;1.05;0.80;;;;;;;;;;10373555;28;20045;-77
2024/04/06 15:22:15;;;;;;;3.45;1.20;;;;;;;;;;10371048;28;20050;-78
2024/04/06 15:27:20;;;;;;;0.70;0.60;;;;;;;;;;10374977;28;20414;-76
2024/04/06 15:32:22;;;;;;;1.17;0.68;;;;;;;;;;10368676;28;20572;-76
2024/04/06 15:37:23;;;;;;;0.77;0.77;;;;;;;;;;10372615;28;20073;-77
2024/04/06 15:42:26;;;;;;;;;;;;;;;;;;10383229;28;20515;-77
2024/04/06 15:47:30;;;;;;;2.03;0.80;;;;;;;;;;10371835;28;19936;-77
2024/04/06 15:52:32;;;;;;;1.55;0.90;;;;;;;;;;10373409;28;20053;-78
2024/04/06 15:57:34;;;;;;;0.90;0.68;;;;;;;;;;10370958;28;20037;-78
2024/04/06 16:02:37;;;;;;;0.73;0.73;;;;;;;;;;10366610;28;20104;-77
2024/04/06 16:07:40;;;;;;;1.60;0.93;;;;;;;;;;10372297;28;20033;-77
2024/04/06 16:12:41;;;;;;;2.63;1.20;;;;;;;;;;10367822;28;20064;-77
2024/04/06 16:17:44;;;;;;;2.50;0.65;;;;;;;;;;10355330;28;20497;-77
2024/04/06 16:22:48;;;;;;;1.30;0.73;;;;;;;;;;10369936;28;22792;-77
2024/04/06 16:27:50;;;;;;;2.05;1.13;;;;;;;;;;10371324;28;20061;-77
2024/04/06 16:32:52;;;;;;;1.37;1.00;;;;;;;;;;10366988;28;20148;-77
2024/04/06 16:37:55;;;;;;;1.00;0.90;;;;;;;;;;10369332;28;20707;-76
2024/04/06 16:42:57;;;;;;;1.67;1.05;;;;;;;;;;10367716;28;20050;-76
2024/04/06 16:47:59;;;;;;;1.75;1.10;;;;;;;;;;10371716;28;20045;-77
2024/04/06 16:53:03;;;;;;;1.33;0.83;;;;;;;;;;10367649;28;20064;-76
2024/04/06 16:58:05;;;;;;;2.00;1.00;;;;;;;;;;10369444;28;20116;-76
2024/04/06 17:03:07;;;;;;;3.90;1.20;;;;;;;;;;10372903;28;20053;-76
2024/04/06 17:08:11;;;;;;;3.85;1.30;;;;;;;;;;10348894;28;20087;-77
2024/04/06 17:13:12;;;;;;;3.72;1.70;;;;;;;;;;10370281;28;20398;-78
2024/04/06 17:18:14;;;;;;;3.63;1.90;;;;;;;;;;10359861;28;20041;-77
2024/04/06 17:23:17;;;;;;;4.63;2.65;;;;;;;;;;10361777;28;20497;-77
2024/04/06 17:28:19;;;;;;;6.93;2.83;;;;;;;;;;10363537;28;20084;-77
2024/04/06 17:33:21;;;;;;;5.67;3.07;;;;;;;;;;10347087;28;20061;-75
2024/04/06 17:38:27;;;;;;;5.25;2.50;;;;;;;;;;10364922;28;20041;-76
2024/04/06 17:43:31;;;;;;;6.93;3.08;;;;;;;;;;10379858;28;20288;-76
2024/04/06 17:48:34;;;;;;;4.28;2.50;;;;;;;;;;10363655;28;20034;-78
2024/04/06 17:53:37;;;;;;;6.15;2.65;;;;;;;;;;10360736;28;20421;-77
2024/04/06 17:58:39;;;;;;;7.63;2.63;;;;;;;;;;10358123;28;20116;-76
2024/04/06 18:03:41;;;;;;;6.27;2.90;;;;;;;;;;10362844;28;20460;-76
2024/04/06 18:08:45;;;;;;;18.40;4.70;;;;;;;;;;10364125;28;20045;-77
2024/04/06 18:13:47;;;;;;;7.82;3.20;;;;;;;;;;10369546;28;20355;-77
2024/04/06 18:18:49;;;;;;;6.63;3.27;;;;;;;;;;10367210;28;20590;-77
2024/04/06 18:23:52;;;;;;;7.15;3.00;;;;;;;;;;10364744;28;20107;-76
2024/04/06 18:28:54;;;;;;;7.20;4.32;;;;;;;;;;10373662;28;20467;-75
2024/04/06 18:33:56;;;;;;;9.13;4.75;;;;;;;;;;10375741;28;20084;-76
2024/04/06 18:38:59;;;;;;;16.45;8.77;;;;;;;;;;10371040;28;20049;-77
2024/04/06 18:44:02;;;;;;;10.82;4.85;;;;;;;;;;10370769;28;20482;-78
2024/04/06 18:49:04;;;;;;;16.63;6.73;;;;;;;;;;10357655;28;20041;-78
2024/04/06 18:54:08;;;;;;;17.10;5.65;;;;;;;;;;10359468;28;20049;-77
2024/04/06 18:59:10;;;;;;;22.30;11.38;;;;;;;;;;10355514;28;20057;-77
2024/04/06 19:04:11;;;;;;;15.10;5.72;;;;;;;;;;10389483;28;20073;-77
2024/04/06 19:09:15;;;;;;;15.25;5.93;;;;;;;;;;10377779;28;20069;-77
2024/04/06 19:14:17;;;;;;;8.77;4.55;;;;;;;;;;10395384;28;20052;-77
2024/04/06 19:19:22;;;;;;;11.13;5.15;;;;;;;;;;10378753;28;20088;-77
2024/04/06 19:24:25;;;;;;;8.80;4.53;;;;;;;;;;10377209;28;20111;-77
2024/04/06 19:29:28;;;;;;;;;;;;;;;;;;10378992;28;20045;-77
2024/04/06 19:34:30;;;;;;;10.20;5.57;;;;;;;;;;10378251;28;19975;-77
2024/04/06 19:39:34;;;;;;;14.03;6.27;;;;;;;;;;10380903;28;20044;-78
2024/04/06 19:44:35;;;;;;;;;;;;;;;;;;10374290;28;20048;-78
2024/04/06 19:49:37;;;;;;;6.80;3.85;;;;;;;;;;10381771;28;20012;-77
2024/04/06 19:54:41;;;;;;;7.78;3.95;;;;;;;;;;10379617;28;20056;-77
2024/04/06 19:59:43;;;;;;;8.93;3.92;;;;;;;;;;10367355;28;20041;-77
2024/04/06 20:04:45;;;;;;;11.77;5.70;;;;;;;;;;10372498;28;20053;-78
2024/04/06 20:09:49;;;;;;;9.15;4.07;;;;;;;;;;10383390;28;20124;-76
2024/04/06 20:14:51;;;;;;;;;;;;;;;;;;10380425;28;20067;-79
2024/04/06 20:19:52;;;;;;;10.20;5.15;;;;;;;;;;10384729;28;19936;-77
2024/04/06 20:30:18;;;;;;;14.30;6.15;;;;;;;;;;10378642;28;20437;-77
2024/04/06 20:35:21;;;;;;;7.82;3.78;;;;;;;;;;10363886;28;20177;-76
2024/04/06 20:40:26;;;;;;;5.80;2.73;;;;;;;;;;10380008;28;20041;-78
2024/04/06 20:45:27;;;;;;;5.30;3.10;;;;;;;;;;10384584;28;20052;-78
2024/04/06 20:50:30;;;;;;;6.90;3.00;;;;;;;;;;10364911;28;20055;-79
2024/04/06 20:55:34;;;;;;;6.35;2.83;;;;;;;;;;10370142;28;20041;-77
2024/04/06 21:00:36;;;;;;;4.95;2.83;;;;;;;;;;10360901;28;20279;-78
2024/04/06 21:05:38;;;;;;;6.57;2.83;;;;;;;;;;10362979;28;20353;-76
2024/04/06 21:10:42;;;;;;;6.97;2.80;;;;;;;;;;10378847;28;20406;-76
2024/04/06 21:15:44;;;;;;;5.70;2.90;;;;;;;;;;10374465;28;20052;-77
2024/04/06 21:20:46;;;;;;;3.80;2.83;;;;;;;;;;10379848;28;20151;-78
2024/04/06 21:25:49;;;;;;;5.90;3.03;;;;;;;;;;10359161;28;20121;-78
2024/04/06 21:30:52;;;;;;;6.18;2.95;;;;;;;;;;10362242;28;20048;-79
2024/04/06 21:35:56;;;;;;;2.97;2.03;;;;;;;;;;10369657;28;20370;-78
2024/04/06 21:41:01;;;;;;;4.65;2.47;;;;;;;;;;10370516;28;20519;-80
2024/04/06 21:46:03;;;;;;;7.80;3.20;;;;;;;;;;10377784;28;20052;-80
2024/04/06 21:51:05;;;;;;;6.38;2.03;;;;;;;;;;10368399;28;20418;-78
2024/04/06 21:56:08;;;;;;;7.40;2.78;;;;;;;;;;10361450;28;20096;-78
2024/04/06 22:01:12;;;;;;;4.18;2.60;;;;;;;;;;10367099;28;20498;-78
2024/04/06 22:06:14;;;;;;;6.10;2.92;;;;;;;;;;10368276;28;20069;-78
2024/04/06 22:11:19;;;;;;;4.95;2.58;;;;;;;;;;10365396;28;20049;-78
2024/04/06 22:16:21;;;;;;;8.07;2.80;;;;;;;;;;10349996;28;20041;-77
2024/04/06 22:21:24;;;;;;;2.78;2.20;;;;;;;;;;10368254;28;20131;-77
2024/04/06 22:26:32;;;;;;;5.38;2.50;;;;;;;;;;10364296;28;20401;-77
2024/04/06 22:31:35;;;;;;;6.68;2.00;;;;;;;;;;10366590;28;20049;-77
2024/04/06 22:36:37;;;;;;;;;;;;;;;;;;10368965;28;20620;-78
2024/04/06 22:41:43;;;;;;;5.00;2.92;;;;;;;;;;10349275;28;19925;-78
2024/04/06 22:46:47;;;;;;;4.38;2.50;;;;;;;;;;10370786;28;20087;-79
2024/04/06 22:51:49;;;;;;;5.78;2.42;;;;;;;;;;10350968;28;20103;-80
2024/04/06 22:56:52;;;;;;;4.97;2.30;;;;;;;;;;10358002;28;20049;-78
2024/04/06 23:01:54;;;;;;;4.65;2.45;;;;;;;;;;10381978;28;20041;-79
2024/04/06 23:06:56;;;;;;;5.18;2.35;;;;;;;;;;10365716;28;20030;-77
2024/04/06 23:12:00;;;;;;;5.20;2.38;;;;;;;;;;10372081;28;20037;-79
2024/04/06 23:17:03;;;;;;;6.10;2.28;;;;;;;;;;10339889;28;20057;-78
2024/04/06 23:22:06;;;;;;;5.45;2.17;;;;;;;;;;10373257;28;20049;-78
2024/04/06 23:27:11;;;;;;;4.50;2.13;;;;;;;;;;10371451;28;20046;-77
2024/04/06 23:32:12;;;;;;;5.28;2.30;;;;;;;;;;10373874;28;20041;-77
2024/04/06 23:37:15;;;;;;;7.10;2.22;;;;;;;;;;10375166;28;20490;-77
2024/04/06 23:42:18;;;;;;;8.80;2.20;;;;;;;;;;10373533;28;20056;-77
2024/04/06 23:47:19;;;;;;;4.43;1.85;;;;;;;;;;10374578;28;20067;-79
2024/04/06 23:52:21;;;;;;;3.38;1.60;;;;;;;;;;10376555;28;20045;-79
2024/04/06 23:57:24;;;;;;;4.10;1.80;;;;;;;;;;10372467;28;20148;-77
